sensor_id;sensor_type;location;lat;lon;timestamp;pressure;altitude;pressure_sealevel;temperature;humidity
73628;BME280;61923;51.846;5.856;2023-02-10T00:01:54;103438.69;;;12.32;66.62
73628;BME280;61923;51.846;5.856;2023-02-10T00:04:20;103445.59;;;12.33;66.69
73628;BME280;61923;51.846;5.856;2023-02-10T00:06:45;103448.34;;;12.30;66.76
73628;BME280;61923;51.846;5.856;2023-02-10T00:09:12;103448.22;;;12.33;66.89
73628;BME280;61923;51.846;5.856;2023-02-10T00:11:41;103437.72;;;12.34;66.83
73628;BME280;61923;51.846;5.856;2023-02-10T00:14:21;103446.50;;;12.32;66.67
73628;BME280;61923;51.846;5.856;2023-02-10T00:16:54;103440.84;;;12.24;66.69
73628;BME280;61923;51.846;5.856;2023-02-10T00:19:21;103456.03;;;12.33;66.81
73628;BME280;61923;51.846;5.856;2023-02-10T00:21:48;103433.19;;;12.21;66.85
73628;BME280;61923;51.846;5.856;2023-02-10T00:24:14;103448.22;;;12.33;66.63
73628;BME280;61923;51.846;5.856;2023-02-10T00:26:39;103455.09;;;12.34;66.61
73628;BME280;61923;51.846;5.856;2023-02-10T00:29:04;103456.09;;;12.31;66.75
73628;BME280;61923;51.846;5.856;2023-02-10T00:31:30;103455.31;;;12.29;66.63
73628;BME280;61923;51.846;5.856;2023-02-10T00:33:55;103462.31;;;12.29;66.85
73628;BME280;61923;51.846;5.856;2023-02-10T00:36:21;103460.47;;;12.31;66.75
73628;BME280;61923;51.846;5.856;2023-02-10T00:38:47;103450.47;;;12.22;66.69
73628;BME280;61923;51.846;5.856;2023-02-10T00:41:18;103466.75;;;12.27;66.83
73628;BME280;61923;51.846;5.856;2023-02-10T00:43:45;103462.38;;;12.27;66.67
73628;BME280;61923;51.846;5.856;2023-02-10T00:46:11;103465.97;;;12.25;66.72
73628;BME280;61923;51.846;5.856;2023-02-10T00:48:37;103466.75;;;12.27;66.71
73628;BME280;61923;51.846;5.856;2023-02-10T00:51:03;103461.38;;;12.30;66.71
73628;BME280;61923;51.846;5.856;2023-02-10T00:53:29;103467.59;;;12.27;66.85
73628;BME280;61923;51.846;5.856;2023-02-10T00:55:54;103438.88;;;12.10;66.75
73628;BME280;61923;51.846;5.856;2023-02-10T00:58:20;103470.25;;;12.26;66.87
73628;BME280;61923;51.846;5.856;2023-02-10T01:00:45;103465.97;;;12.25;66.87
73628;BME280;61923;51.846;5.856;2023-02-10T01:03:11;103466.75;;;12.27;66.87
73628;BME280;61923;51.846;5.856;2023-02-10T01:05:36;103467.59;;;12.27;66.97
73628;BME280;61923;51.846;5.856;2023-02-10T01:08:01;103468.59;;;12.25;66.81
73628;BME280;61923;51.846;5.856;2023-02-10T01:10:27;103477.25;;;12.25;67.12
73628;BME280;61923;51.846;5.856;2023-02-10T01:12:53;103468.72;;;12.22;67.05
73628;BME280;61923;51.846;5.856;2023-02-10T01:15:18;103474.56;;;12.27;67.13
73628;BME280;61923;51.846;5.856;2023-02-10T01:17:45;103475.56;;;12.24;67.04
73628;BME280;61923;51.846;5.856;2023-02-10T01:20:10;103491.09;;;12.26;67.13
73628;BME280;61923;51.846;5.856;2023-02-10T01:22:35;103483.28;;;12.26;67.32
73628;BME280;61923;51.846;5.856;2023-02-10T01:25:01;103477.47;;;12.21;67.17
73628;BME280;61923;51.846;5.856;2023-02-10T01:27:27;103494.47;;;12.28;66.94
73628;BME280;61923;51.846;5.856;2023-02-10T01:29:52;103491.97;;;12.26;67.16
73628;BME280;61923;51.846;5.856;2023-02-10T01:32:18;103487.59;;;12.27;67.09
73628;BME280;61923;51.846;5.856;2023-02-10T01:34:43;103482.38;;;12.27;67.05
73628;BME280;61923;51.846;5.856;2023-02-10T01:37:09;103483.09;;;12.30;66.94
73628;BME280;61923;51.846;5.856;2023-02-10T01:39:34;103478.19;;;12.24;67.24
73628;BME280;61923;51.846;5.856;2023-02-10T01:42:00;103485.69;;;12.30;67.13
73628;BME280;61923;51.846;5.856;2023-02-10T01:46:51;103481.63;;;12.25;66.83
73628;BME280;61923;51.846;5.856;2023-02-10T01:49:24;103485.75;;;12.29;67.20
73628;BME280;61923;51.846;5.856;2023-02-10T01:52:00;103478.84;;;12.28;67.39
73628;BME280;61923;51.846;5.856;2023-02-10T01:54:38;103462.53;;;12.24;67.37
73628;BME280;61923;51.846;5.856;2023-02-10T01:57:05;103459.84;;;12.26;67.20
73628;BME280;61923;51.846;5.856;2023-02-10T01:59:33;103469.19;;;12.30;66.98
73628;BME280;61923;51.846;5.856;2023-02-10T02:02:00;103471.13;;;12.26;67.21
73628;BME280;61923;51.846;5.856;2023-02-10T02:07:29;103472.81;;;12.27;67.12
73628;BME280;61923;51.846;5.856;2023-02-10T02:09:59;103478.06;;;12.26;67.33
73628;BME280;61923;51.846;5.856;2023-02-10T02:15:42;103466.81;;;12.25;67.02
73628;BME280;61923;51.846;5.856;2023-02-10T02:20:59;103476.53;;;12.22;67.06
73628;BME280;61923;51.846;5.856;2023-02-10T02:23:34;103486.88;;;12.23;67.04
73628;BME280;61923;51.846;5.856;2023-02-10T02:37:09;103473.94;;;12.22;67.50
73628;BME280;61923;51.846;5.856;2023-02-10T02:39:36;103482.38;;;12.27;67.35
73628;BME280;61923;51.846;5.856;2023-02-10T02:44:39;103468.53;;;12.26;67.36
73628;BME280;61923;51.846;5.856;2023-02-10T02:47:16;103476.25;;;12.28;67.39
73628;BME280;61923;51.846;5.856;2023-02-10T02:50:22;103474.50;;;12.28;67.26
73628;BME280;61923;51.846;5.856;2023-02-10T02:52:56;103484.81;;;12.30;67.37
73628;BME280;61923;51.846;5.856;2023-02-10T02:55:35;103476.41;;;12.25;67.32
73628;BME280;61923;51.846;5.856;2023-02-10T02:58:09;103482.31;;;12.28;67.24
73628;BME280;61923;51.846;5.856;2023-02-10T03:00:38;103491.09;;;12.26;67.69
73628;BME280;61923;51.846;5.856;2023-02-10T03:03:06;103489.44;;;12.25;67.56
73628;BME280;61923;51.846;5.856;2023-02-10T03:05:33;103482.81;;;12.18;67.35
73628;BME280;61923;51.846;5.856;2023-02-10T03:07:59;103498.03;;;12.27;67.40
73628;BME280;61923;51.846;5.856;2023-02-10T03:10:25;103498.03;;;12.27;67.33
73628;BME280;61923;51.846;5.856;2023-02-10T03:12:51;103497.25;;;12.25;67.65
73628;BME280;61923;51.846;5.856;2023-02-10T03:15:16;103505.91;;;12.25;67.30
73628;BME280;61923;51.846;5.856;2023-02-10T03:17:42;103497.53;;;12.19;67.72
73628;BME280;61923;51.846;5.856;2023-02-10T03:20:07;103514.34;;;12.30;67.80
73628;BME280;61923;51.846;5.856;2023-02-10T03:22:33;103505.66;;;12.30;67.75
73628;BME280;61923;51.846;5.856;2023-02-10T03:24:58;103507.38;;;12.31;67.91
73628;BME280;61923;51.846;5.856;2023-02-10T03:27:24;103507.72;;;12.23;67.79
73628;BME280;61923;51.846;5.856;2023-02-10T03:29:49;103505.91;;;12.25;67.84
73628;BME280;61923;51.846;5.856;2023-02-10T03:32:18;103509.28;;;12.27;67.85
73628;BME280;61923;51.846;5.856;2023-02-10T03:34:43;103508.38;;;12.28;67.75
73628;BME280;61923;51.846;5.856;2023-02-10T03:37:09;103509.44;;;12.24;67.78
73628;BME280;61923;51.846;5.856;2023-02-10T03:39:34;103516.25;;;12.27;67.71
73628;BME280;61923;51.846;5.856;2023-02-10T03:42:00;103511.81;;;12.29;67.71
73628;BME280;61923;51.846;5.856;2023-02-10T03:44:25;103511.28;;;12.22;67.66
73628;BME280;61923;51.846;5.856;2023-02-10T03:46:51;103505.06;;;12.25;67.68
73628;BME280;61923;51.846;5.856;2023-02-10T03:49:18;103510.28;;;12.25;67.64
73628;BME280;61923;51.846;5.856;2023-02-10T03:51:48;103508.56;;;12.24;67.62
73628;BME280;61923;51.846;5.856;2023-02-10T03:54:14;103513.78;;;12.24;67.52
73628;BME280;61923;51.846;5.856;2023-02-10T03:56:39;103499.28;;;12.18;67.69
73628;BME280;61923;51.846;5.856;2023-02-10T03:59:05;103510.22;;;12.26;67.68
73628;BME280;61923;51.846;5.856;2023-02-10T04:01:31;103508.56;;;12.24;67.49
73628;BME280;61923;51.846;5.856;2023-02-10T04:03:57;103491.69;;;12.13;67.44
73628;BME280;61923;51.846;5.856;2023-02-10T04:06:22;103513.00;;;12.22;67.58
73628;BME280;61923;51.846;5.856;2023-02-10T04:08:48;103515.63;;;12.22;67.54
73628;BME280;61923;51.846;5.856;2023-02-10T04:11:14;103514.78;;;12.21;67.30
73628;BME280;61923;51.846;5.856;2023-02-10T04:13:40;103510.41;;;12.22;67.66
73628;BME280;61923;51.846;5.856;2023-02-10T04:16:12;103517.44;;;12.20;67.37
73628;BME280;61923;51.846;5.856;2023-02-10T04:18:38;103515.78;;;12.19;67.63
73628;BME280;61923;51.846;5.856;2023-02-10T04:21:04;103513.16;;;12.19;67.43
73628;BME280;61923;51.846;5.856;2023-02-10T04:23:30;103509.03;;;12.14;67.36
73628;BME280;61923;51.846;5.856;2023-02-10T04:25:56;103508.16;;;12.14;67.49
73628;BME280;61923;51.846;5.856;2023-02-10T04:28:22;103508.94;;;12.16;67.34
73628;BME280;61923;51.846;5.856;2023-02-10T04:30:55;103511.53;;;12.16;67.35
73628;BME280;61923;51.846;5.856;2023-02-10T04:33:21;103487.06;;;12.01;67.43
73628;BME280;61923;51.846;5.856;2023-02-10T04:35:48;103514.22;;;12.14;67.53
73628;BME280;61923;51.846;5.856;2023-02-10T04:38:13;103519.28;;;12.18;67.28
73628;BME280;61923;51.846;5.856;2023-02-10T04:40:39;103514.00;;;12.19;67.21
73628;BME280;61923;51.846;5.856;2023-02-10T04:43:05;103524.50;;;12.18;67.08
73628;BME280;61923;51.846;5.856;2023-02-10T04:45:30;103522.88;;;12.15;67.24
73628;BME280;61923;51.846;5.856;2023-02-10T04:47:55;103522.94;;;12.13;67.43
73628;BME280;61923;51.846;5.856;2023-02-10T04:50:21;103523.88;;;12.12;67.23
73628;BME280;61923;51.846;5.856;2023-02-10T04:52:46;103533.25;;;12.17;67.25
73628;BME280;61923;51.846;5.856;2023-02-10T04:55:11;103527.16;;;12.16;67.25
73628;BME280;61923;51.846;5.856;2023-02-10T04:57:37;103524.00;;;12.09;67.17
73628;BME280;61923;51.846;5.856;2023-02-10T05:00:03;103527.44;;;12.10;67.36
73628;BME280;61923;51.846;5.856;2023-02-10T05:02:29;103536.75;;;12.15;67.02
73628;BME280;61923;51.846;5.856;2023-02-10T05:04:55;103534.19;;;12.14;67.07
73628;BME280;61923;51.846;5.856;2023-02-10T05:07:20;103543.00;;;12.11;67.14
73628;BME280;61923;51.846;5.856;2023-02-10T05:09:46;103541.34;;;12.10;67.16
73628;BME280;61923;51.846;5.856;2023-02-10T05:12:11;103535.13;;;12.13;66.98
73628;BME280;61923;51.846;5.856;2023-02-10T05:14:37;103540.28;;;12.14;67.07
73628;BME280;61923;51.846;5.856;2023-02-10T05:17:02;103531.81;;;12.09;67.21
73628;BME280;61923;51.846;5.856;2023-02-10T05:19:28;103531.69;;;12.12;66.81
73628;BME280;61923;51.846;5.856;2023-02-10T05:21:53;103524.78;;;12.11;66.94
73628;BME280;61923;51.846;5.856;2023-02-10T05:24:18;103524.00;;;12.09;66.92
73628;BME280;61923;51.846;5.856;2023-02-10T05:26:44;103531.75;;;12.11;66.86
73628;BME280;61923;51.846;5.856;2023-02-10T05:29:09;103531.75;;;12.11;66.76
73628;BME280;61923;51.846;5.856;2023-02-10T05:31:34;103533.53;;;12.10;66.76
73628;BME280;61923;51.846;5.856;2023-02-10T05:34:00;103543.06;;;12.10;66.71
73628;BME280;61923;51.846;5.856;2023-02-10T05:36:25;103536.19;;;12.09;66.92
73628;BME280;61923;51.846;5.856;2023-02-10T05:38:51;103509.16;;;11.92;66.86
73628;BME280;61923;51.846;5.856;2023-02-10T05:41:34;103508.25;;;11.93;66.71
73628;BME280;61923;51.846;5.856;2023-02-10T05:44:00;103531.81;;;12.09;66.77
73628;BME280;61923;51.846;5.856;2023-02-10T05:46:25;103543.06;;;12.10;66.89
73628;BME280;61923;51.846;5.856;2023-02-10T05:48:50;103540.56;;;12.08;66.74
73628;BME280;61923;51.846;5.856;2023-02-10T05:51:16;103533.59;;;12.09;66.40
73628;BME280;61923;51.846;5.856;2023-02-10T05:53:41;103532.09;;;12.03;67.21
73628;BME280;61923;51.846;5.856;2023-02-10T05:56:07;103523.50;;;12.01;66.68
73628;BME280;61923;51.846;5.856;2023-02-10T05:58:32;103537.97;;;12.08;66.68
73628;BME280;61923;51.846;5.856;2023-02-10T06:01:00;103538.94;;;12.06;66.78
73628;BME280;61923;51.846;5.856;2023-02-10T06:03:30;103537.97;;;12.08;66.61
73628;BME280;61923;51.846;5.856;2023-02-10T06:05:55;103541.47;;;12.07;66.58
73628;BME280;61923;51.846;5.856;2023-02-10T06:08:20;103550.06;;;12.09;66.61
73628;BME280;61923;51.846;5.856;2023-02-10T06:10:46;103547.44;;;12.09;66.70
73628;BME280;61923;51.846;5.856;2023-02-10T06:13:11;103538.03;;;12.07;66.53
73628;BME280;61923;51.846;5.856;2023-02-10T06:15:36;103540.63;;;12.07;66.70
73628;BME280;61923;51.846;5.856;2023-02-10T06:18:02;103537.09;;;12.08;66.77
73628;BME280;61923;51.846;5.856;2023-02-10T06:20:27;103529.22;;;12.09;66.47
73628;BME280;61923;51.846;5.856;2023-02-10T06:22:53;103516.47;;;12.03;66.51
73628;BME280;61923;51.846;5.856;2023-02-10T06:25:18;103530.16;;;12.08;66.62
73628;BME280;61923;51.846;5.856;2023-02-10T06:27:43;103531.09;;;12.06;66.88
73628;BME280;61923;51.846;5.856;2023-02-10T06:30:09;103530.16;;;12.08;66.66
73628;BME280;61923;51.846;5.856;2023-02-10T06:32:35;103523.22;;;12.07;66.52
73628;BME280;61923;51.846;5.856;2023-02-10T06:35:01;103523.22;;;12.07;66.60
73628;BME280;61923;51.846;5.856;2023-02-10T06:37:27;103533.66;;;12.07;66.59
73628;BME280;61923;51.846;5.856;2023-02-10T06:39:52;103540.56;;;12.08;66.50
73628;BME280;61923;51.846;5.856;2023-02-10T06:42:18;103538.81;;;12.09;66.51
73628;BME280;61923;51.846;5.856;2023-02-10T06:44:43;103545.91;;;12.05;66.94
73628;BME280;61923;51.846;5.856;2023-02-10T06:47:09;103544.06;;;12.07;66.71
73628;BME280;61923;51.846;5.856;2023-02-10T06:49:34;103545.78;;;12.08;67.06
73628;BME280;61923;51.846;5.856;2023-02-10T06:52:00;103543.06;;;12.10;66.83
73628;BME280;61923;51.846;5.856;2023-02-10T06:54:26;103544.06;;;12.07;67.28
73628;BME280;61923;51.846;5.856;2023-02-10T06:56:52;103549.16;;;12.10;67.02
73628;BME280;61923;51.846;5.856;2023-02-10T06:59:17;103547.22;;;12.14;66.81
73628;BME280;61923;51.846;5.856;2023-02-10T07:01:43;103551.66;;;12.12;67.09
73628;BME280;61923;51.846;5.856;2023-02-10T07:04:08;103557.81;;;12.11;67.00
73628;BME280;61923;51.846;5.856;2023-02-10T07:06:33;103557.81;;;12.11;66.96
73628;BME280;61923;51.846;5.856;2023-02-10T07:08:59;103545.13;;;12.03;66.91
73628;BME280;61923;51.846;5.856;2023-02-10T07:11:24;103556.03;;;12.11;67.06
73628;BME280;61923;51.846;5.856;2023-02-10T07:13:50;103537.38;;;12.02;67.08
73628;BME280;61923;51.846;5.856;2023-02-10T07:16:15;103559.13;;;12.20;66.98
73628;BME280;61923;51.846;5.856;2023-02-10T07:18:41;103558.84;;;12.26;66.90
73628;BME280;61923;51.846;5.856;2023-02-10T07:21:07;103563.50;;;12.19;66.83
73628;BME280;61923;51.846;5.856;2023-02-10T07:23:32;103569.75;;;12.34;67.49
73628;BME280;61923;51.846;5.856;2023-02-10T07:25:58;103567.28;;;12.50;67.25
73628;BME280;61923;51.846;5.856;2023-02-10T07:28:23;103564.78;;;12.48;67.39
73628;BME280;61923;51.846;5.856;2023-02-10T07:30:48;103567.78;;;12.39;67.48
73628;BME280;61923;51.846;5.856;2023-02-10T07:33:14;103561.03;;;12.35;67.34
73628;BME280;61923;51.846;5.856;2023-02-10T07:35:39;103554.56;;;12.25;67.16
73628;BME280;61923;51.846;5.856;2023-02-10T07:38:04;103563.78;;;12.32;67.27
73628;BME280;61923;51.846;5.856;2023-02-10T07:40:30;103566.38;;;12.32;67.01
73628;BME280;61923;51.846;5.856;2023-02-10T07:42:58;103574.91;;;12.35;67.04
73628;BME280;61923;51.846;5.856;2023-02-10T07:45:24;103567.16;;;12.34;66.93
73628;BME280;61923;51.846;5.856;2023-02-10T07:47:51;103576.59;;;12.37;66.55
73628;BME280;61923;51.846;5.856;2023-02-10T07:50:17;103572.22;;;12.37;66.59
73628;BME280;61923;51.846;5.856;2023-02-10T07:55:31;103575.09;;;12.50;65.59
73628;BME280;61923;51.846;5.856;2023-02-10T07:57:57;103580.53;;;12.45;65.94
73628;BME280;61923;51.846;5.856;2023-02-10T08:00:22;103580.53;;;12.45;65.87
73628;BME280;61923;51.846;5.856;2023-02-10T08:02:48;103588.34;;;12.45;65.90
73628;BME280;61923;51.846;5.856;2023-02-10T08:05:13;103574.91;;;12.35;65.66
73628;BME280;61923;51.846;5.856;2023-02-10T08:07:38;103598.00;;;12.43;65.76
73628;BME280;61923;51.846;5.856;2023-02-10T08:10:04;103594.50;;;12.44;65.70
73628;BME280;61923;51.846;5.856;2023-02-10T08:12:29;103599.06;;;12.39;65.83
73628;BME280;61923;51.846;5.856;2023-02-10T08:14:55;103604.22;;;12.41;65.97
73628;BME280;61923;51.846;5.856;2023-02-10T08:17:20;103603.28;;;12.42;66.23
73628;BME280;61923;51.846;5.856;2023-02-10T08:19:46;103611.19;;;12.40;66.51
73628;BME280;61923;51.846;5.856;2023-02-10T08:22:11;103613.88;;;12.39;66.17
73628;BME280;61923;51.846;5.856;2023-02-10T08:24:36;103618.03;;;12.43;66.16
73628;BME280;61923;51.846;5.856;2023-02-10T08:27:04;103624.06;;;12.43;66.04
73628;BME280;61923;51.846;5.856;2023-02-10T08:29:29;103626.06;;;12.38;66.19
73628;BME280;61923;51.846;5.856;2023-02-10T08:31:55;103631.88;;;12.43;66.19
73628;BME280;61923;51.846;5.856;2023-02-10T08:34:20;103634.72;;;12.39;66.31
73628;BME280;61923;51.846;5.856;2023-02-10T08:36:46;103638.28;;;12.36;66.14
73628;BME280;61923;51.846;5.856;2023-02-10T08:39:13;103637.09;;;12.43;66.23
73628;BME280;61923;51.846;5.856;2023-02-10T08:41:38;103616.41;;;12.40;66.14
73628;BME280;61923;51.846;5.856;2023-02-10T08:44:04;103617.97;;;12.44;66.07
73628;BME280;61923;51.846;5.856;2023-02-10T08:46:30;103611.75;;;12.47;66.01
73628;BME280;61923;51.846;5.856;2023-02-10T08:48:55;103606.59;;;12.45;66.01
73628;BME280;61923;51.846;5.856;2023-02-10T08:51:21;103611.31;;;12.56;65.64
73628;BME280;61923;51.846;5.856;2023-02-10T08:53:47;103608.84;;;12.53;65.98
73628;BME280;61923;51.846;5.856;2023-02-10T08:56:16;103612.22;;;12.55;65.84
73628;BME280;61923;51.846;5.856;2023-02-10T08:58:43;103614.47;;;12.63;65.82
73628;BME280;61923;51.846;5.856;2023-02-10T09:01:12;103619.00;;;12.59;65.69
73628;BME280;61923;51.846;5.856;2023-02-10T09:03:39;103620.31;;;12.68;65.26
73628;BME280;61923;51.846;5.856;2023-02-10T09:06:05;103617.69;;;12.68;65.35
73628;BME280;61923;51.846;5.856;2023-02-10T09:08:37;103626.22;;;12.71;65.33
73628;BME280;61923;51.846;5.856;2023-02-10T09:11:05;103612.06;;;12.77;65.06
73628;BME280;61923;51.846;5.856;2023-02-10T09:13:31;103616.09;;;12.84;64.91
73628;BME280;61923;51.846;5.856;2023-02-10T09:15:56;103620.66;;;12.79;64.92
73628;BME280;61923;51.846;5.856;2023-02-10T09:18:27;103612.31;;;12.90;64.51
73628;BME280;61923;51.846;5.856;2023-02-10T09:20:53;103597.56;;;12.71;64.82
73628;BME280;61923;51.846;5.856;2023-02-10T09:23:18;103614.72;;;12.94;64.37
73628;BME280;61923;51.846;5.856;2023-02-10T09:25:52;103618.47;;;12.89;64.53
73628;BME280;61923;51.846;5.856;2023-02-10T09:28:17;103612.41;;;12.88;64.44
73628;BME280;61923;51.846;5.856;2023-02-10T09:30:43;103625.16;;;12.94;64.25
73628;BME280;61923;51.846;5.856;2023-02-10T09:33:08;103611.63;;;12.86;64.14
73628;BME280;61923;51.846;5.856;2023-02-10T09:35:34;103640.22;;;12.88;64.71
73628;BME280;61923;51.846;5.856;2023-02-10T09:37:59;103627.56;;;12.80;64.75
73628;BME280;61923;51.846;5.856;2023-02-10T09:40:30;103637.41;;;12.92;64.42
73628;BME280;61923;51.846;5.856;2023-02-10T09:45:34;103617.94;;;13.00;63.88
73628;BME280;61923;51.846;5.856;2023-02-10T09:48:25;103624.72;;;13.21;63.48
73628;BME280;61923;51.846;5.856;2023-02-10T09:53:26;103628.25;;;13.20;63.42
73628;BME280;61923;51.846;5.856;2023-02-10T09:55:58;103626.03;;;13.12;63.71
73628;BME280;61923;51.846;5.856;2023-02-10T10:01:31;103622.28;;;13.35;63.05
73628;BME280;61923;51.846;5.856;2023-02-10T10:04:19;103622.06;;;13.40;62.73
73628;BME280;61923;51.846;5.856;2023-02-10T10:06:45;103625.91;;;13.50;62.62
73628;BME280;61923;51.846;5.856;2023-02-10T10:11:45;103629.81;;;13.59;62.04
73628;BME280;61923;51.846;5.856;2023-02-10T10:14:35;103628.59;;;13.66;61.85
73628;BME280;61923;51.846;5.856;2023-02-10T10:25:47;103626.56;;;13.71;61.79
73628;BME280;61923;51.846;5.856;2023-02-10T10:31:12;103602.78;;;13.60;62.06
73628;BME280;61923;51.846;5.856;2023-02-10T10:36:39;103630.25;;;13.67;62.31
73628;BME280;61923;51.846;5.856;2023-02-10T10:41:49;103625.53;;;13.58;62.43
73628;BME280;61923;51.846;5.856;2023-02-10T10:44:26;103621.59;;;13.49;62.77
73628;BME280;61923;51.846;5.856;2023-02-10T10:47:10;103618.91;;;13.51;62.81
73628;BME280;61923;51.846;5.856;2023-02-10T10:49:37;103613.00;;;13.47;63.08
73628;BME280;61923;51.846;5.856;2023-02-10T10:52:27;103609.69;;;13.44;62.96
73628;BME280;61923;51.846;5.856;2023-02-10T10:54:53;103603.69;;;13.42;63.20
73628;BME280;61923;51.846;5.856;2023-02-10T10:57:19;103594.34;;;13.38;62.97
73628;BME280;61923;51.846;5.856;2023-02-10T10:59:55;103602.78;;;13.43;63.48
73628;BME280;61923;51.846;5.856;2023-02-10T11:02:23;103602.78;;;13.43;63.26
73628;BME280;61923;51.846;5.856;2023-02-10T11:05:19;103605.53;;;13.40;63.45
73628;BME280;61923;51.846;5.856;2023-02-10T11:07:50;103588.53;;;13.32;63.53
73628;BME280;61923;51.846;5.856;2023-02-10T11:10:33;103603.25;;;13.33;63.75
73628;BME280;61923;51.846;5.856;2023-02-10T11:13:02;103595.59;;;13.30;63.77
73628;BME280;61923;51.846;5.856;2023-02-10T11:15:35;103585.63;;;13.20;63.98
73628;BME280;61923;51.846;5.856;2023-02-10T11:18:05;103602.69;;;13.27;63.99
73628;BME280;61923;51.846;5.856;2023-02-10T11:20:34;103602.75;;;13.25;63.95
73628;BME280;61923;51.846;5.856;2023-02-10T11:28:01;103598.47;;;13.24;64.00
73628;BME280;61923;51.846;5.856;2023-02-10T11:32:54;103584.56;;;13.24;64.75
73628;BME280;61923;51.846;5.856;2023-02-10T11:35:21;103588.03;;;13.24;64.48
73628;BME280;61923;51.846;5.856;2023-02-10T11:38:20;103575.81;;;13.25;64.52
73628;BME280;61923;51.846;5.856;2023-02-10T11:41:00;103563.69;;;13.24;64.74
73628;BME280;61923;51.846;5.856;2023-02-10T11:43:31;103551.72;;;13.20;64.63
73628;BME280;61923;51.846;5.856;2023-02-10T11:46:03;103562.72;;;13.26;65.02
73628;BME280;61923;51.846;5.856;2023-02-10T11:48:30;103560.63;;;13.50;65.41
73628;BME280;61923;51.846;5.856;2023-02-10T11:51:16;103565.84;;;13.50;65.96
73628;BME280;61923;51.846;5.856;2023-02-10T11:53:44;103553.03;;;13.46;65.73
73628;BME280;61923;51.846;5.856;2023-02-10T11:56:23;103564.41;;;13.45;65.54
73628;BME280;61923;51.846;5.856;2023-02-10T12:01:57;103557.03;;;13.35;65.65
73628;BME280;61923;51.846;5.856;2023-02-10T12:12:46;103533.47;;;13.37;65.35
73628;BME280;61923;51.846;5.856;2023-02-10T12:26:31;103542.38;;;13.33;65.35
73628;BME280;61923;51.846;5.856;2023-02-10T12:44:07;103547.03;;;13.26;65.54
73628;BME280;61923;51.846;5.856;2023-02-10T12:46:17;103539.13;;;13.28;65.58
73628;BME280;61923;51.846;5.856;2023-02-10T12:56:37;103512.34;;;13.24;66.00
73628;BME280;61923;51.846;5.856;2023-02-10T12:59:17;103514.03;;;13.25;65.85
73628;BME280;61923;51.846;5.856;2023-02-10T13:01:47;103508.81;;;13.25;65.99
73628;BME280;61923;51.846;5.856;2023-02-10T13:06:59;103511.28;;;13.28;65.69
73628;BME280;61923;51.846;5.856;2023-02-10T13:09:42;103505.16;;;13.29;65.99
73628;BME280;61923;51.846;5.856;2023-02-10T13:12:27;103488.78;;;13.26;66.26
73628;BME280;61923;51.846;5.856;2023-02-10T13:14:59;103485.31;;;13.25;66.21
73628;BME280;61923;51.846;5.856;2023-02-10T13:17:37;103486.88;;;13.29;66.14
73628;BME280;61923;51.846;5.856;2023-02-10T13:34:17;103487.63;;;13.49;66.05
73628;BME280;61923;51.846;5.856;2023-02-10T13:39:30;103467.97;;;13.42;66.14
73628;BME280;61923;51.846;5.856;2023-02-10T13:42:29;103485.31;;;13.43;66.38
73628;BME280;61923;51.846;5.856;2023-02-10T13:45:04;103480.09;;;13.43;66.23
73628;BME280;61923;51.846;5.856;2023-02-10T13:47:38;103479.41;;;13.39;66.57
73628;BME280;61923;51.846;5.856;2023-02-10T13:52:56;103462.75;;;13.42;66.68
73628;BME280;61923;51.846;5.856;2023-02-10T13:57:59;103449.38;;;13.48;66.60
73628;BME280;61923;51.846;5.856;2023-02-10T14:00:54;103404.34;;;13.27;66.67
73628;BME280;61923;51.846;5.856;2023-02-10T14:03:23;103432.94;;;13.46;66.72
73628;BME280;61923;51.846;5.856;2023-02-10T14:08:36;103441.03;;;13.57;66.70
73628;BME280;61923;51.846;5.856;2023-02-10T14:13:41;103433.47;;;13.52;67.01
73628;BME280;61923;51.846;5.856;2023-02-10T14:16:28;103431.28;;;13.45;67.58
73628;BME280;61923;51.846;5.856;2023-02-10T14:18:59;103433.13;;;13.43;67.67
73628;BME280;61923;51.846;5.856;2023-02-10T14:21:26;103430.66;;;13.40;67.68
73628;BME280;61923;51.846;5.856;2023-02-10T14:24:02;103424.94;;;13.33;67.91
73628;BME280;61923;51.846;5.856;2023-02-10T14:26:32;103426.53;;;13.35;67.75
73628;BME280;61923;51.846;5.856;2023-02-10T14:28:59;103437.66;;;13.39;67.88
73628;BME280;61923;51.846;5.856;2023-02-10T14:31:29;103441.22;;;13.38;67.77
73628;BME280;61923;51.846;5.856;2023-02-10T14:33:58;103442.94;;;13.38;67.73
73628;BME280;61923;51.846;5.856;2023-02-10T14:36:25;103448.09;;;13.39;67.70
73628;BME280;61923;51.846;5.856;2023-02-10T14:38:57;103432.34;;;13.41;67.52
73628;BME280;61923;51.846;5.856;2023-02-10T14:41:26;103432.34;;;13.41;67.62
73628;BME280;61923;51.846;5.856;2023-02-10T14:43:52;103432.34;;;13.41;67.85
73628;BME280;61923;51.846;5.856;2023-02-10T14:46:36;103439.34;;;13.40;67.74
73628;BME280;61923;51.846;5.856;2023-02-10T14:49:09;103431.69;;;13.37;67.81
73628;BME280;61923;51.846;5.856;2023-02-10T14:51:46;103440.13;;;13.42;67.72
73628;BME280;61923;51.846;5.856;2023-02-10T14:54:19;103437.50;;;13.42;67.74
73628;BME280;61923;51.846;5.856;2023-02-10T14:59:22;103436.81;;;13.39;67.93
73628;BME280;61923;51.846;5.856;2023-02-10T15:01:49;103428.22;;;13.37;68.00
73628;BME280;61923;51.846;5.856;2023-02-10T15:04:16;103429.13;;;13.35;68.02
73628;BME280;61923;51.846;5.856;2023-02-10T15:06:45;103425.63;;;13.37;68.01
73628;BME280;61923;51.846;5.856;2023-02-10T15:09:21;103418.56;;;13.39;67.95
73628;BME280;61923;51.846;5.856;2023-02-10T15:12:01;103393.75;;;13.30;67.95
73628;BME280;61923;51.846;5.856;2023-02-10T15:17:16;103378.50;;;13.22;68.18
73628;BME280;61923;51.846;5.856;2023-02-10T15:19:57;103406.97;;;13.27;68.35
73628;BME280;61923;51.846;5.856;2023-02-10T15:22:41;103393.22;;;13.23;68.56